LBWNLBBG

Guest
Details From LBWN - Varna
To LBBG - Burgas
Flight Number -
Tags generated
Created
Modified
Stats Distance 42 nm / 78 km
Max Altitude 0 ft / 0 m
Waypoints 3
Social Downloads 0
Likes 0
Share VATSIM

Download

Looking for another format? Having issues loading an existing format? Contact us
Advertisement - Login to hide

Notes

Basic altitude profile: - Ascent Rate: 2500ft/min - Ascent Speed: 250kts - Cruise Altitude: 35000ft - Cruise Speed: 420kts - Descent Rate: 1500ft/min - Descent Speed: 250kts Options: - Use NATs: yes - Use PACOTS: yes - Use low airways: yes - Use high airways: yes

Route

LBWN BGS LBBG

ID Type Via Altitude Latitude Longitude Leg Dist Tot Dist Heading (true) Name
O LBWN APT - 0 ft / 0 m 43.23204˚ 27.82524˚ - 0 nm - Varna
BGS VOR - 0 ft / 0 m 42.57106˚ 27.51986˚ 41 nm 41 nm 199° / 199° BURGAS VOR-DME
O LBBG APT - 0 ft / 0 m 42.57013˚ 27.51524˚ 0 nm 42 nm 255° / 255° Burgas

Altitude Profile

Advertisement - Login to hide

LBWN

Details ICAO LBWN (VAR)
Name Varna
Region Bulgaria
Timezone Europe/Sofia (UTC+2.0)
Stats Elevation 230 ft / 70 m (AMSL)
Location 43.232042° 27.825236°
Runways 1
Magnetic Variation 5.648° E

METAR

LBWN 170100Z 29003KT 260V320 9999 OVC032 10/07 Q1009 NOSIG

Decode

TAF

TAF LBWN 162300Z 1700/1724 26010KT 6000 RA SCT025 OVC035 BECMG 1702/1704 01018KT PROB30 TEMPO 1704/1708 3000 SHRA BKN020 FEW025CB OVC030 BECMG 1702/1704 02018KT BECMG 1718/1720 9999 NSW SCT030 BKN045

Decode

Departure Runways

ID Width Length Bearing (true) Bearing (mag) Surface Threshold Offset Overrun Length
09 180 ft / 55 m 8,254 ft / 2,516 m 97.11° 91.46° Concrete 350 ft / 107 m 0 ft / 0 m
27 180 ft / 55 m 8,254 ft / 2,516 m 277.13° 271.48° Concrete 350 ft / 107 m 0 ft / 0 m

LBBG

Details ICAO LBBG (BOJ)
Name Burgas
Region Bulgaria
Timezone Europe/Sofia (UTC+2.0)
Stats Elevation 135 ft / 41 m (AMSL)
Location 42.570130° 27.515240°
Runways 1
Magnetic Variation 5.503° E

METAR

LBBG 170100Z 08006KT 7000 RA SCT018 OVC021 12/11 Q1009 NOSIG

Decode

TAF

TAF LBBG 162300Z 1700/1724 28010KT 6000 RA BKN025 OVC035 TEMPO 1701/1710 3000 SHRA BKN020 SCT025CB OVC030 BECMG 1703/1705 01020KT BECMG 1718/1720 9999 NSW SCT030 BKN045

Decode

Destination Runways

ID Width Length Bearing (true) Bearing (mag) Surface Threshold Offset Overrun Length
04 148 ft / 45 m 10,502 ft / 3,201 m 44.28° 38.78° Concrete 0 ft / 0 m 190 ft / 58 m
22 148 ft / 45 m 10,502 ft / 3,201 m 224.29° 218.79° Concrete 0 ft / 0 m 190 ft / 58 m

Approach Navaids

Runway Type Ident Frequency Range Bearing (true) Bearing (mag) Slope Elevation
22 Localiser IBG 110.30 MHz 18 nm / 33 km 224.26° 218.76° - 135 ft / 41 m (AMSL)
22 Glidescope IBG 110.30 MHz 10 nm / 19 km 224.28° 218.78° 3.00° 135 ft / 41 m (AMSL)

Popular Alternatives